sensor_id;sensor_type;location;lat;lon;timestamp;P1;durP1;ratioP1;P2;durP2;ratioP2
39956;SDS011;48483;44.640;7.494;2022-12-20T00:01:48;19.05;;;15.15;;
39956;SDS011;48483;44.640;7.494;2022-12-20T00:04:15;21.35;;;16.15;;
39956;SDS011;48483;44.640;7.494;2022-12-20T00:06:41;18.73;;;14.25;;
39956;SDS011;48483;44.640;7.494;2022-12-20T00:09:10;19.35;;;15.10;;
39956;SDS011;48483;44.640;7.494;2022-12-20T00:11:37;22.63;;;15.70;;
39956;SDS011;48483;44.640;7.494;2022-12-20T00:14:04;22.83;;;16.55;;
39956;SDS011;48483;44.640;7.494;2022-12-20T00:16:31;21.10;;;16.05;;
39956;SDS011;48483;44.640;7.494;2022-12-20T00:18:59;22.42;;;15.70;;
39956;SDS011;48483;44.640;7.494;2022-12-20T00:21:28;21.42;;;15.07;;
39956;SDS011;48483;44.640;7.494;2022-12-20T00:23:56;19.80;;;14.07;;
39956;SDS011;48483;44.640;7.494;2022-12-20T00:26:25;20.48;;;14.73;;
39956;SDS011;48483;44.640;7.494;2022-12-20T00:28:53;15.88;;;11.15;;
39956;SDS011;48483;44.640;7.494;2022-12-20T00:31:21;19.42;;;13.15;;
39956;SDS011;48483;44.640;7.494;2022-12-20T00:33:49;18.35;;;12.82;;
39956;SDS011;48483;44.640;7.494;2022-12-20T00:36:16;16.70;;;12.68;;
39956;SDS011;48483;44.640;7.494;2022-12-20T00:38:45;15.68;;;12.77;;
39956;SDS011;48483;44.640;7.494;2022-12-20T00:41:13;16.40;;;12.10;;
39956;SDS011;48483;44.640;7.494;2022-12-20T00:43:42;18.70;;;14.18;;
39956;SDS011;48483;44.640;7.494;2022-12-20T00:46:09;19.42;;;12.98;;
39956;SDS011;48483;44.640;7.494;2022-12-20T00:48:37;19.13;;;12.13;;
39956;SDS011;48483;44.640;7.494;2022-12-20T00:51:05;16.85;;;12.57;;
39956;SDS011;48483;44.640;7.494;2022-12-20T00:53:33;18.58;;;12.55;;
39956;SDS011;48483;44.640;7.494;2022-12-20T00:56:01;14.20;;;10.90;;
39956;SDS011;48483;44.640;7.494;2022-12-20T00:58:30;14.45;;;10.77;;
39956;SDS011;48483;44.640;7.494;2022-12-20T01:00:59;12.45;;;9.52;;
39956;SDS011;48483;44.640;7.494;2022-12-20T01:03:26;16.15;;;9.68;;
39956;SDS011;48483;44.640;7.494;2022-12-20T01:05:54;12.20;;;9.65;;
39956;SDS011;48483;44.640;7.494;2022-12-20T01:08:22;11.70;;;9.32;;
39956;SDS011;48483;44.640;7.494;2022-12-20T01:10:57;11.80;;;9.73;;
39956;SDS011;48483;44.640;7.494;2022-12-20T01:13:24;12.57;;;9.70;;
39956;SDS011;48483;44.640;7.494;2022-12-20T01:15:51;12.88;;;9.30;;
39956;SDS011;48483;44.640;7.494;2022-12-20T01:18:19;11.90;;;10.02;;
39956;SDS011;48483;44.640;7.494;2022-12-20T01:20:45;12.18;;;9.38;;
39956;SDS011;48483;44.640;7.494;2022-12-20T01:23:12;14.95;;;10.10;;
39956;SDS011;48483;44.640;7.494;2022-12-20T01:25:39;16.55;;;10.40;;
39956;SDS011;48483;44.640;7.494;2022-12-20T01:28:06;12.90;;;10.00;;
39956;SDS011;48483;44.640;7.494;2022-12-20T01:30:32;12.73;;;8.50;;
39956;SDS011;48483;44.640;7.494;2022-12-20T01:32:59;12.10;;;9.52;;
39956;SDS011;48483;44.640;7.494;2022-12-20T01:35:27;11.23;;;8.80;;
39956;SDS011;48483;44.640;7.494;2022-12-20T01:37:53;12.50;;;9.45;;
39956;SDS011;48483;44.640;7.494;2022-12-20T01:40:20;13.65;;;9.05;;
39956;SDS011;48483;44.640;7.494;2022-12-20T01:42:47;10.98;;;7.72;;
39956;SDS011;48483;44.640;7.494;2022-12-20T01:45:14;11.60;;;8.60;;
39956;SDS011;48483;44.640;7.494;2022-12-20T01:47:52;11.18;;;7.70;;
39956;SDS011;48483;44.640;7.494;2022-12-20T01:50:19;12.43;;;8.57;;
39956;SDS011;48483;44.640;7.494;2022-12-20T01:52:47;12.65;;;8.95;;
39956;SDS011;48483;44.640;7.494;2022-12-20T01:55:15;12.07;;;7.97;;
39956;SDS011;48483;44.640;7.494;2022-12-20T01:57:45;10.57;;;7.40;;
39956;SDS011;48483;44.640;7.494;2022-12-20T02:00:14;11.45;;;7.95;;
39956;SDS011;48483;44.640;7.494;2022-12-20T02:02:42;9.48;;;7.35;;
39956;SDS011;48483;44.640;7.494;2022-12-20T02:05:10;10.27;;;7.70;;
39956;SDS011;48483;44.640;7.494;2022-12-20T02:07:39;9.23;;;6.93;;
39956;SDS011;48483;44.640;7.494;2022-12-20T02:10:10;10.25;;;7.00;;
39956;SDS011;48483;44.640;7.494;2022-12-20T02:12:38;9.15;;;7.07;;
39956;SDS011;48483;44.640;7.494;2022-12-20T02:15:19;9.43;;;6.90;;
39956;SDS011;48483;44.640;7.494;2022-12-20T02:17:57;8.90;;;6.55;;
39956;SDS011;48483;44.640;7.494;2022-12-20T02:20:37;8.43;;;6.07;;
39956;SDS011;48483;44.640;7.494;2022-12-20T02:23:23;8.57;;;6.25;;
39956;SDS011;48483;44.640;7.494;2022-12-20T02:26:24;7.68;;;5.85;;
39956;SDS011;48483;44.640;7.494;2022-12-20T02:29:09;7.80;;;5.57;;
39956;SDS011;48483;44.640;7.494;2022-12-20T02:31:49;8.73;;;6.18;;
39956;SDS011;48483;44.640;7.494;2022-12-20T02:34:25;8.95;;;6.68;;
39956;SDS011;48483;44.640;7.494;2022-12-20T02:36:54;9.50;;;6.88;;
39956;SDS011;48483;44.640;7.494;2022-12-20T02:39:20;10.95;;;6.75;;
39956;SDS011;48483;44.640;7.494;2022-12-20T02:41:50;9.45;;;6.47;;
39956;SDS011;48483;44.640;7.494;2022-12-20T02:44:20;8.43;;;6.40;;
39956;SDS011;48483;44.640;7.494;2022-12-20T02:47:13;10.07;;;6.28;;
39956;SDS011;48483;44.640;7.494;2022-12-20T02:49:46;8.27;;;6.55;;
39956;SDS011;48483;44.640;7.494;2022-12-20T02:52:14;8.15;;;6.35;;
39956;SDS011;48483;44.640;7.494;2022-12-20T02:54:43;8.93;;;6.28;;
39956;SDS011;48483;44.640;7.494;2022-12-20T02:57:10;10.00;;;6.75;;
39956;SDS011;48483;44.640;7.494;2022-12-20T02:59:42;9.68;;;6.93;;
39956;SDS011;48483;44.640;7.494;2022-12-20T03:02:15;10.40;;;7.25;;
39956;SDS011;48483;44.640;7.494;2022-12-20T03:04:42;9.88;;;7.28;;
39956;SDS011;48483;44.640;7.494;2022-12-20T03:07:12;8.80;;;6.82;;
39956;SDS011;48483;44.640;7.494;2022-12-20T03:09:40;9.95;;;7.57;;
39956;SDS011;48483;44.640;7.494;2022-12-20T03:12:09;11.18;;;7.70;;
39956;SDS011;48483;44.640;7.494;2022-12-20T03:14:36;9.82;;;7.18;;
39956;SDS011;48483;44.640;7.494;2022-12-20T03:17:06;10.05;;;7.10;;
39956;SDS011;48483;44.640;7.494;2022-12-20T03:19:35;9.90;;;7.05;;
39956;SDS011;48483;44.640;7.494;2022-12-20T03:22:01;10.27;;;7.85;;
39956;SDS011;48483;44.640;7.494;2022-12-20T03:24:30;12.32;;;8.30;;
39956;SDS011;48483;44.640;7.494;2022-12-20T03:26:58;11.82;;;7.95;;
39956;SDS011;48483;44.640;7.494;2022-12-20T03:29:25;10.32;;;7.50;;
39956;SDS011;48483;44.640;7.494;2022-12-20T03:31:52;12.82;;;9.18;;
39956;SDS011;48483;44.640;7.494;2022-12-20T03:34:19;11.52;;;8.23;;
39956;SDS011;48483;44.640;7.494;2022-12-20T03:36:47;11.43;;;7.55;;
39956;SDS011;48483;44.640;7.494;2022-12-20T03:39:15;10.82;;;7.97;;
39956;SDS011;48483;44.640;7.494;2022-12-20T03:41:41;12.52;;;8.50;;
39956;SDS011;48483;44.640;7.494;2022-12-20T03:44:10;11.48;;;8.95;;
39956;SDS011;48483;44.640;7.494;2022-12-20T03:46:37;11.25;;;7.97;;
39956;SDS011;48483;44.640;7.494;2022-12-20T03:49:04;10.57;;;7.72;;
39956;SDS011;48483;44.640;7.494;2022-12-20T03:51:32;10.93;;;7.75;;
39956;SDS011;48483;44.640;7.494;2022-12-20T03:54:01;11.80;;;8.85;;
39956;SDS011;48483;44.640;7.494;2022-12-20T03:56:47;11.63;;;8.68;;
39956;SDS011;48483;44.640;7.494;2022-12-20T03:59:14;10.50;;;8.27;;
39956;SDS011;48483;44.640;7.494;2022-12-20T04:01:41;12.35;;;8.88;;
39956;SDS011;48483;44.640;7.494;2022-12-20T04:04:08;11.68;;;8.75;;
39956;SDS011;48483;44.640;7.494;2022-12-20T04:06:36;11.20;;;8.93;;
39956;SDS011;48483;44.640;7.494;2022-12-20T04:09:04;13.27;;;9.63;;
39956;SDS011;48483;44.640;7.494;2022-12-20T04:11:37;12.40;;;9.25;;
39956;SDS011;48483;44.640;7.494;2022-12-20T04:14:08;12.45;;;8.95;;
39956;SDS011;48483;44.640;7.494;2022-12-20T04:16:34;11.63;;;8.75;;
39956;SDS011;48483;44.640;7.494;2022-12-20T04:19:01;13.63;;;9.77;;
39956;SDS011;48483;44.640;7.494;2022-12-20T04:21:34;12.13;;;8.65;;
39956;SDS011;48483;44.640;7.494;2022-12-20T04:24:04;12.85;;;9.50;;
39956;SDS011;48483;44.640;7.494;2022-12-20T04:26:43;11.23;;;9.15;;
39956;SDS011;48483;44.640;7.494;2022-12-20T04:29:11;13.38;;;9.43;;
39956;SDS011;48483;44.640;7.494;2022-12-20T04:31:39;13.25;;;9.95;;
39956;SDS011;48483;44.640;7.494;2022-12-20T04:34:06;11.95;;;9.25;;
39956;SDS011;48483;44.640;7.494;2022-12-20T04:36:33;12.77;;;9.43;;
39956;SDS011;48483;44.640;7.494;2022-12-20T04:39:04;13.30;;;9.57;;
39956;SDS011;48483;44.640;7.494;2022-12-20T04:41:40;12.70;;;9.18;;
39956;SDS011;48483;44.640;7.494;2022-12-20T04:44:10;12.25;;;9.75;;
39956;SDS011;48483;44.640;7.494;2022-12-20T04:46:38;13.50;;;9.43;;
39956;SDS011;48483;44.640;7.494;2022-12-20T04:49:08;12.23;;;9.40;;
39956;SDS011;48483;44.640;7.494;2022-12-20T04:51:38;13.57;;;9.52;;
39956;SDS011;48483;44.640;7.494;2022-12-20T04:54:06;11.32;;;9.43;;
39956;SDS011;48483;44.640;7.494;2022-12-20T04:56:44;10.40;;;8.35;;
39956;SDS011;48483;44.640;7.494;2022-12-20T04:59:16;11.77;;;8.50;;
39956;SDS011;48483;44.640;7.494;2022-12-20T05:01:45;11.70;;;8.77;;
39956;SDS011;48483;44.640;7.494;2022-12-20T05:04:16;12.38;;;9.27;;
39956;SDS011;48483;44.640;7.494;2022-12-20T05:06:43;12.30;;;9.02;;
39956;SDS011;48483;44.640;7.494;2022-12-20T05:09:11;10.85;;;8.13;;
39956;SDS011;48483;44.640;7.494;2022-12-20T05:11:38;11.63;;;7.82;;
39956;SDS011;48483;44.640;7.494;2022-12-20T05:14:07;12.07;;;8.30;;
39956;SDS011;48483;44.640;7.494;2022-12-20T05:16:35;12.70;;;8.93;;
39956;SDS011;48483;44.640;7.494;2022-12-20T05:19:05;12.77;;;9.43;;
39956;SDS011;48483;44.640;7.494;2022-12-20T05:21:37;13.98;;;9.88;;
39956;SDS011;48483;44.640;7.494;2022-12-20T05:24:23;11.32;;;8.07;;
39956;SDS011;48483;44.640;7.494;2022-12-20T05:27:35;10.25;;;8.25;;
39956;SDS011;48483;44.640;7.494;2022-12-20T05:30:03;10.52;;;7.80;;
39956;SDS011;48483;44.640;7.494;2022-12-20T05:32:31;10.05;;;7.40;;
39956;SDS011;48483;44.640;7.494;2022-12-20T05:34:58;11.80;;;7.40;;
39956;SDS011;48483;44.640;7.494;2022-12-20T05:37:24;10.63;;;7.53;;
39956;SDS011;48483;44.640;7.494;2022-12-20T05:39:53;11.05;;;8.07;;
39956;SDS011;48483;44.640;7.494;2022-12-20T05:42:22;10.48;;;7.57;;
39956;SDS011;48483;44.640;7.494;2022-12-20T05:44:51;10.10;;;7.38;;
39956;SDS011;48483;44.640;7.494;2022-12-20T05:47:19;11.00;;;7.57;;
39956;SDS011;48483;44.640;7.494;2022-12-20T05:49:46;10.93;;;7.70;;
39956;SDS011;48483;44.640;7.494;2022-12-20T05:52:12;9.77;;;7.90;;
39956;SDS011;48483;44.640;7.494;2022-12-20T05:54:40;10.20;;;7.43;;
39956;SDS011;48483;44.640;7.494;2022-12-20T05:57:12;11.77;;;8.23;;
39956;SDS011;48483;44.640;7.494;2022-12-20T06:02:16;11.90;;;8.05;;
39956;SDS011;48483;44.640;7.494;2022-12-20T06:04:44;10.38;;;7.97;;
39956;SDS011;48483;44.640;7.494;2022-12-20T06:07:22;10.43;;;7.10;;
39956;SDS011;48483;44.640;7.494;2022-12-20T06:09:55;10.02;;;6.70;;
39956;SDS011;48483;44.640;7.494;2022-12-20T06:12:28;9.20;;;6.40;;
39956;SDS011;48483;44.640;7.494;2022-12-20T06:14:55;8.93;;;6.63;;
39956;SDS011;48483;44.640;7.494;2022-12-20T06:17:22;9.68;;;7.32;;
39956;SDS011;48483;44.640;7.494;2022-12-20T06:19:50;9.50;;;6.95;;
39956;SDS011;48483;44.640;7.494;2022-12-20T06:22:17;8.93;;;6.75;;
39956;SDS011;48483;44.640;7.494;2022-12-20T06:24:48;10.27;;;7.30;;
39956;SDS011;48483;44.640;7.494;2022-12-20T06:27:18;11.70;;;8.05;;
39956;SDS011;48483;44.640;7.494;2022-12-20T06:29:54;13.40;;;9.40;;
39956;SDS011;48483;44.640;7.494;2022-12-20T06:32:25;11.55;;;8.77;;
39956;SDS011;48483;44.640;7.494;2022-12-20T06:34:52;10.68;;;8.35;;
39956;SDS011;48483;44.640;7.494;2022-12-20T06:37:19;12.93;;;8.07;;
39956;SDS011;48483;44.640;7.494;2022-12-20T06:39:46;11.32;;;8.48;;
39956;SDS011;48483;44.640;7.494;2022-12-20T06:42:13;10.73;;;8.05;;
39956;SDS011;48483;44.640;7.494;2022-12-20T06:44:42;10.65;;;8.13;;
39956;SDS011;48483;44.640;7.494;2022-12-20T06:47:11;10.85;;;8.35;;
39956;SDS011;48483;44.640;7.494;2022-12-20T06:49:37;13.80;;;11.00;;
39956;SDS011;48483;44.640;7.494;2022-12-20T06:52:11;13.70;;;9.80;;
39956;SDS011;48483;44.640;7.494;2022-12-20T06:54:49;10.68;;;7.97;;
39956;SDS011;48483;44.640;7.494;2022-12-20T06:57:16;11.88;;;9.18;;
39956;SDS011;48483;44.640;7.494;2022-12-20T06:59:46;13.43;;;9.38;;
39956;SDS011;48483;44.640;7.494;2022-12-20T07:02:14;11.18;;;8.55;;
39956;SDS011;48483;44.640;7.494;2022-12-20T07:04:41;12.68;;;9.27;;
39956;SDS011;48483;44.640;7.494;2022-12-20T07:07:07;10.85;;;8.10;;
39956;SDS011;48483;44.640;7.494;2022-12-20T07:09:34;9.98;;;7.65;;
39956;SDS011;48483;44.640;7.494;2022-12-20T07:12:02;9.25;;;6.80;;
39956;SDS011;48483;44.640;7.494;2022-12-20T07:14:30;11.23;;;8.27;;
39956;SDS011;48483;44.640;7.494;2022-12-20T07:16:56;12.85;;;8.02;;
39956;SDS011;48483;44.640;7.494;2022-12-20T07:19:24;11.85;;;8.90;;
39956;SDS011;48483;44.640;7.494;2022-12-20T07:21:51;10.95;;;7.97;;
39956;SDS011;48483;44.640;7.494;2022-12-20T07:24:18;12.32;;;8.43;;
39956;SDS011;48483;44.640;7.494;2022-12-20T07:26:44;12.45;;;9.98;;
39956;SDS011;48483;44.640;7.494;2022-12-20T07:29:11;12.95;;;9.07;;
39956;SDS011;48483;44.640;7.494;2022-12-20T07:31:38;13.63;;;9.43;;
39956;SDS011;48483;44.640;7.494;2022-12-20T07:34:05;15.15;;;10.57;;
39956;SDS011;48483;44.640;7.494;2022-12-20T07:36:33;14.45;;;10.32;;
39956;SDS011;48483;44.640;7.494;2022-12-20T07:39:00;15.00;;;10.93;;
39956;SDS011;48483;44.640;7.494;2022-12-20T07:41:26;15.55;;;10.70;;
39956;SDS011;48483;44.640;7.494;2022-12-20T07:43:53;13.18;;;10.32;;
39956;SDS011;48483;44.640;7.494;2022-12-20T07:46:20;12.88;;;10.07;;
39956;SDS011;48483;44.640;7.494;2022-12-20T07:48:47;14.20;;;9.80;;
39956;SDS011;48483;44.640;7.494;2022-12-20T07:51:14;13.50;;;9.20;;
39956;SDS011;48483;44.640;7.494;2022-12-20T07:53:45;12.80;;;9.25;;
39956;SDS011;48483;44.640;7.494;2022-12-20T07:56:15;14.27;;;10.70;;
39956;SDS011;48483;44.640;7.494;2022-12-20T07:58:43;12.20;;;10.85;;
39956;SDS011;48483;44.640;7.494;2022-12-20T08:01:10;14.20;;;11.18;;
39956;SDS011;48483;44.640;7.494;2022-12-20T08:03:39;12.18;;;10.23;;
39956;SDS011;48483;44.640;7.494;2022-12-20T08:06:09;13.93;;;10.80;;
39956;SDS011;48483;44.640;7.494;2022-12-20T08:08:37;13.50;;;10.07;;
39956;SDS011;48483;44.640;7.494;2022-12-20T08:13:35;13.98;;;10.38;;
39956;SDS011;48483;44.640;7.494;2022-12-20T08:16:02;14.05;;;10.65;;
39956;SDS011;48483;44.640;7.494;2022-12-20T08:18:29;12.70;;;10.23;;
39956;SDS011;48483;44.640;7.494;2022-12-20T08:20:56;15.57;;;13.10;;
39956;SDS011;48483;44.640;7.494;2022-12-20T08:23:23;17.73;;;14.63;;
39956;SDS011;48483;44.640;7.494;2022-12-20T08:25:49;17.40;;;13.23;;
39956;SDS011;48483;44.640;7.494;2022-12-20T08:28:17;17.13;;;13.38;;
39956;SDS011;48483;44.640;7.494;2022-12-20T08:30:45;16.35;;;12.95;;
39956;SDS011;48483;44.640;7.494;2022-12-20T08:33:11;14.85;;;11.63;;
39956;SDS011;48483;44.640;7.494;2022-12-20T08:35:38;17.23;;;10.98;;
39956;SDS011;48483;44.640;7.494;2022-12-20T08:38:05;15.65;;;10.68;;
39956;SDS011;48483;44.640;7.494;2022-12-20T08:40:32;22.33;;;11.50;;
39956;SDS011;48483;44.640;7.494;2022-12-20T08:42:59;15.38;;;11.27;;
39956;SDS011;48483;44.640;7.494;2022-12-20T08:45:27;13.35;;;10.30;;
39956;SDS011;48483;44.640;7.494;2022-12-20T08:47:53;15.85;;;12.43;;
39956;SDS011;48483;44.640;7.494;2022-12-20T08:50:20;15.52;;;10.98;;
39956;SDS011;48483;44.640;7.494;2022-12-20T08:52:46;14.60;;;11.90;;
39956;SDS011;48483;44.640;7.494;2022-12-20T08:55:13;15.23;;;12.10;;
39956;SDS011;48483;44.640;7.494;2022-12-20T08:57:40;16.75;;;14.32;;
39956;SDS011;48483;44.640;7.494;2022-12-20T09:00:07;18.10;;;15.10;;
39956;SDS011;48483;44.640;7.494;2022-12-20T09:02:36;17.05;;;14.35;;
39956;SDS011;48483;44.640;7.494;2022-12-20T09:05:03;21.77;;;16.58;;
39956;SDS011;48483;44.640;7.494;2022-12-20T09:07:30;20.48;;;16.10;;
39956;SDS011;48483;44.640;7.494;2022-12-20T09:09:56;22.35;;;15.52;;
39956;SDS011;48483;44.640;7.494;2022-12-20T09:12:23;20.55;;;16.30;;
39956;SDS011;48483;44.640;7.494;2022-12-20T09:14:49;19.48;;;16.83;;
39956;SDS011;48483;44.640;7.494;2022-12-20T09:17:16;21.52;;;16.08;;
39956;SDS011;48483;44.640;7.494;2022-12-20T09:19:44;21.80;;;16.60;;
39956;SDS011;48483;44.640;7.494;2022-12-20T09:22:11;20.02;;;17.35;;
39956;SDS011;48483;44.640;7.494;2022-12-20T09:24:37;21.70;;;16.75;;
39956;SDS011;48483;44.640;7.494;2022-12-20T09:27:04;20.05;;;15.73;;
39956;SDS011;48483;44.640;7.494;2022-12-20T09:29:31;20.55;;;15.18;;
39956;SDS011;48483;44.640;7.494;2022-12-20T09:31:57;20.55;;;16.48;;
39956;SDS011;48483;44.640;7.494;2022-12-20T09:34:24;20.65;;;15.40;;
39956;SDS011;48483;44.640;7.494;2022-12-20T09:36:52;19.13;;;15.35;;
39956;SDS011;48483;44.640;7.494;2022-12-20T09:39:20;21.08;;;15.80;;
39956;SDS011;48483;44.640;7.494;2022-12-20T09:41:46;19.05;;;15.45;;
39956;SDS011;48483;44.640;7.494;2022-12-20T09:44:14;17.23;;;13.70;;
39956;SDS011;48483;44.640;7.494;2022-12-20T09:46:45;22.58;;;17.10;;
39956;SDS011;48483;44.640;7.494;2022-12-20T09:49:17;21.67;;;16.52;;
39956;SDS011;48483;44.640;7.494;2022-12-20T09:51:58;17.30;;;13.70;;
39956;SDS011;48483;44.640;7.494;2022-12-20T09:54:43;16.60;;;12.93;;
39956;SDS011;48483;44.640;7.494;2022-12-20T09:57:16;16.48;;;12.07;;
39956;SDS011;48483;44.640;7.494;2022-12-20T09:59:50;17.50;;;14.48;;
39956;SDS011;48483;44.640;7.494;2022-12-20T10:02:19;17.40;;;13.02;;
39956;SDS011;48483;44.640;7.494;2022-12-20T10:04:47;15.60;;;11.82;;
39956;SDS011;48483;44.640;7.494;2022-12-20T10:07:20;13.02;;;10.57;;
39956;SDS011;48483;44.640;7.494;2022-12-20T10:10:00;13.30;;;8.65;;
39956;SDS011;48483;44.640;7.494;2022-12-20T10:12:44;13.18;;;9.90;;
39956;SDS011;48483;44.640;7.494;2022-12-20T10:15:17;14.43;;;9.15;;
39956;SDS011;48483;44.640;7.494;2022-12-20T10:17:49;11.43;;;9.57;;
39956;SDS011;48483;44.640;7.494;2022-12-20T10:20:34;12.23;;;9.05;;
39956;SDS011;48483;44.640;7.494;2022-12-20T10:23:10;11.35;;;8.52;;
39956;SDS011;48483;44.640;7.494;2022-12-20T10:25:42;12.13;;;9.63;;
39956;SDS011;48483;44.640;7.494;2022-12-20T10:28:11;11.93;;;9.52;;
39956;SDS011;48483;44.640;7.494;2022-12-20T10:30:40;11.02;;;9.80;;
39956;SDS011;48483;44.640;7.494;2022-12-20T10:33:11;14.07;;;10.57;;
39956;SDS011;48483;44.640;7.494;2022-12-20T10:35:44;14.48;;;11.43;;
39956;SDS011;48483;44.640;7.494;2022-12-20T10:38:13;14.32;;;10.55;;
39956;SDS011;48483;44.640;7.494;2022-12-20T10:40:43;15.68;;;11.05;;
39956;SDS011;48483;44.640;7.494;2022-12-20T10:43:13;12.40;;;9.60;;
39956;SDS011;48483;44.640;7.494;2022-12-20T10:45:42;14.70;;;10.63;;
39956;SDS011;48483;44.640;7.494;2022-12-20T10:48:23;14.07;;;10.82;;
39956;SDS011;48483;44.640;7.494;2022-12-20T10:50:54;13.93;;;10.95;;
39956;SDS011;48483;44.640;7.494;2022-12-20T10:53:23;14.68;;;11.90;;
39956;SDS011;48483;44.640;7.494;2022-12-20T10:55:50;12.77;;;10.73;;
39956;SDS011;48483;44.640;7.494;2022-12-20T10:58:20;15.40;;;12.55;;
39956;SDS011;48483;44.640;7.494;2022-12-20T11:01:02;14.02;;;11.10;;
39956;SDS011;48483;44.640;7.494;2022-12-20T11:03:31;13.30;;;10.40;;
39956;SDS011;48483;44.640;7.494;2022-12-20T11:05:58;13.85;;;10.57;;
39956;SDS011;48483;44.640;7.494;2022-12-20T11:08:29;13.25;;;10.63;;
39956;SDS011;48483;44.640;7.494;2022-12-20T11:11:09;14.52;;;10.90;;
39956;SDS011;48483;44.640;7.494;2022-12-20T11:13:42;12.18;;;9.65;;
39956;SDS011;48483;44.640;7.494;2022-12-20T11:16:27;15.48;;;11.15;;
39956;SDS011;48483;44.640;7.494;2022-12-20T11:19:04;13.10;;;9.88;;
39956;SDS011;48483;44.640;7.494;2022-12-20T11:21:43;13.82;;;11.52;;
39956;SDS011;48483;44.640;7.494;2022-12-20T11:24:19;14.23;;;11.95;;
39956;SDS011;48483;44.640;7.494;2022-12-20T11:26:58;15.52;;;11.43;;
39956;SDS011;48483;44.640;7.494;2022-12-20T11:29:38;15.40;;;11.02;;
39956;SDS011;48483;44.640;7.494;2022-12-20T11:32:15;12.73;;;10.30;;
39956;SDS011;48483;44.640;7.494;2022-12-20T11:34:53;14.85;;;9.13;;
39956;SDS011;48483;44.640;7.494;2022-12-20T11:37:29;11.00;;;8.43;;
39956;SDS011;48483;44.640;7.494;2022-12-20T11:40:03;13.13;;;8.90;;
39956;SDS011;48483;44.640;7.494;2022-12-20T11:42:45;12.57;;;8.55;;
39956;SDS011;48483;44.640;7.494;2022-12-20T11:45:27;10.90;;;7.93;;
39956;SDS011;48483;44.640;7.494;2022-12-20T11:48:11;11.77;;;8.23;;
39956;SDS011;48483;44.640;7.494;2022-12-20T11:51:20;12.25;;;8.30;;
39956;SDS011;48483;44.640;7.494;2022-12-20T11:53:49;11.10;;;8.00;;
39956;SDS011;48483;44.640;7.494;2022-12-20T11:56:22;13.88;;;7.82;;
39956;SDS011;48483;44.640;7.494;2022-12-20T11:58:53;10.93;;;7.65;;
39956;SDS011;48483;44.640;7.494;2022-12-20T12:01:23;9.55;;;7.57;;
39956;SDS011;48483;44.640;7.494;2022-12-20T12:03:58;10.13;;;7.20;;
39956;SDS011;48483;44.640;7.494;2022-12-20T12:06:30;10.70;;;8.02;;
39956;SDS011;48483;44.640;7.494;2022-12-20T12:09:05;11.90;;;7.80;;
39956;SDS011;48483;44.640;7.494;2022-12-20T12:11:41;10.85;;;8.02;;
39956;SDS011;48483;44.640;7.494;2022-12-20T12:14:15;11.18;;;7.43;;
39956;SDS011;48483;44.640;7.494;2022-12-20T12:16:53;11.23;;;7.82;;
39956;SDS011;48483;44.640;7.494;2022-12-20T12:19:25;9.98;;;8.02;;
39956;SDS011;48483;44.640;7.494;2022-12-20T12:21:55;10.43;;;7.57;;
39956;SDS011;48483;44.640;7.494;2022-12-20T12:24:27;11.18;;;8.55;;
39956;SDS011;48483;44.640;7.494;2022-12-20T12:27:00;11.85;;;8.82;;
39956;SDS011;48483;44.640;7.494;2022-12-20T12:29:28;12.52;;;9.48;;
39956;SDS011;48483;44.640;7.494;2022-12-20T12:31:57;11.32;;;8.48;;
39956;SDS011;48483;44.640;7.494;2022-12-20T12:34:31;11.23;;;8.88;;
39956;SDS011;48483;44.640;7.494;2022-12-20T12:37:17;11.63;;;9.30;;
39956;SDS011;48483;44.640;7.494;2022-12-20T12:40:11;11.15;;;8.50;;
39956;SDS011;48483;44.640;7.494;2022-12-20T12:46:00;11.95;;;8.38;;
39956;SDS011;48483;44.640;7.494;2022-12-20T12:48:30;11.88;;;9.57;;
39956;SDS011;48483;44.640;7.494;2022-12-20T12:51:01;11.68;;;9.77;;
39956;SDS011;48483;44.640;7.494;2022-12-20T12:53:31;13.93;;;10.15;;
39956;SDS011;48483;44.640;7.494;2022-12-20T12:59:12;14.70;;;10.77;;
39956;SDS011;48483;44.640;7.494;2022-12-20T13:04:59;19.98;;;12.10;;
39956;SDS011;48483;44.640;7.494;2022-12-20T13:07:48;15.07;;;12.18;;
39956;SDS011;48483;44.640;7.494;2022-12-20T13:13:22;13.80;;;11.35;;
39956;SDS011;48483;44.640;7.494;2022-12-20T13:18:55;17.27;;;12.57;;
39956;SDS011;48483;44.640;7.494;2022-12-20T13:21:29;15.27;;;12.80;;
39956;SDS011;48483;44.640;7.494;2022-12-20T13:27:14;19.20;;;12.98;;
39956;SDS011;48483;44.640;7.494;2022-12-20T13:35:54;14.35;;;11.48;;
39956;SDS011;48483;44.640;7.494;2022-12-20T13:41:22;14.85;;;11.27;;
39956;SDS011;48483;44.640;7.494;2022-12-20T13:44:15;12.88;;;10.27;;
39956;SDS011;48483;44.640;7.494;2022-12-20T13:47:25;13.33;;;7.97;;
39956;SDS011;48483;44.640;7.494;2022-12-20T13:49:59;13.88;;;9.70;;
39956;SDS011;48483;44.640;7.494;2022-12-20T13:52:28;16.50;;;10.18;;
39956;SDS011;48483;44.640;7.494;2022-12-20T13:54:57;12.02;;;9.90;;
39956;SDS011;48483;44.640;7.494;2022-12-20T13:57:32;12.82;;;9.50;;
39956;SDS011;48483;44.640;7.494;2022-12-20T14:00:13;11.88;;;9.75;;
39956;SDS011;48483;44.640;7.494;2022-12-20T14:02:41;11.32;;;9.88;;
39956;SDS011;48483;44.640;7.494;2022-12-20T14:05:13;13.13;;;9.75;;
39956;SDS011;48483;44.640;7.494;2022-12-20T14:07:44;10.32;;;8.68;;
39956;SDS011;48483;44.640;7.494;2022-12-20T14:10:16;11.45;;;9.25;;
39956;SDS011;48483;44.640;7.494;2022-12-20T14:12:47;12.85;;;9.45;;
39956;SDS011;48483;44.640;7.494;2022-12-20T14:15:22;12.17;;;7.93;;
39956;SDS011;48483;44.640;7.494;2022-12-20T14:17:50;11.07;;;9.45;;
39956;SDS011;48483;44.640;7.494;2022-12-20T14:20:18;11.23;;;9.40;;
39956;SDS011;48483;44.640;7.494;2022-12-20T14:22:51;11.95;;;9.90;;
39956;SDS011;48483;44.640;7.494;2022-12-20T14:25:24;11.75;;;10.05;;
39956;SDS011;48483;44.640;7.494;2022-12-20T14:27:56;13.40;;;10.40;;
39956;SDS011;48483;44.640;7.494;2022-12-20T14:30:27;15.75;;;11.10;;
39956;SDS011;48483;44.640;7.494;2022-12-20T14:32:56;14.77;;;11.23;;
39956;SDS011;48483;44.640;7.494;2022-12-20T14:35:23;15.05;;;12.35;;
39956;SDS011;48483;44.640;7.494;2022-12-20T14:37:54;16.00;;;13.55;;
39956;SDS011;48483;44.640;7.494;2022-12-20T14:40:22;20.02;;;14.88;;
39956;SDS011;48483;44.640;7.494;2022-12-20T14:42:49;17.42;;;13.90;;
39956;SDS011;48483;44.640;7.494;2022-12-20T14:45:18;22.60;;;16.80;;
39956;SDS011;48483;44.640;7.494;2022-12-20T14:47:48;20.70;;;17.58;;
39956;SDS011;48483;44.640;7.494;2022-12-20T14:50:21;22.38;;;17.58;;
39956;SDS011;48483;44.640;7.494;2022-12-20T14:52:52;23.08;;;18.35;;
39956;SDS011;48483;44.640;7.494;2022-12-20T14:55:20;28.02;;;20.85;;
39956;SDS011;48483;44.640;7.494;2022-12-20T14:57:51;22.90;;;19.63;;
39956;SDS011;48483;44.640;7.494;2022-12-20T15:00:21;24.15;;;18.98;;
39956;SDS011;48483;44.640;7.494;2022-12-20T15:02:50;21.85;;;17.80;;
39956;SDS011;48483;44.640;7.494;2022-12-20T15:05:36;22.08;;;17.40;;
39956;SDS011;48483;44.640;7.494;2022-12-20T15:08:10;22.17;;;16.45;;
39956;SDS011;48483;44.640;7.494;2022-12-20T15:10:38;21.42;;;17.08;;
39956;SDS011;48483;44.640;7.494;2022-12-20T15:13:11;19.40;;;16.40;;
39956;SDS011;48483;44.640;7.494;2022-12-20T15:15:40;20.65;;;14.77;;
39956;SDS011;48483;44.640;7.494;2022-12-20T15:18:09;26.38;;;18.73;;
39956;SDS011;48483;44.640;7.494;2022-12-20T15:20:37;29.83;;;21.13;;
39956;SDS011;48483;44.640;7.494;2022-12-20T15:23:05;38.58;;;26.65;;
39956;SDS011;48483;44.640;7.494;2022-12-20T15:25:34;45.70;;;30.58;;